createdAt,value
2023-05-19T00:00:04.964Z,92.60
2023-05-19T00:01:16.994Z,93.10
2023-05-19T00:02:20.999Z,93.40
2023-05-19T00:03:25.505Z,93.80
2023-05-19T00:04:28.336Z,93.90
2023-05-19T00:05:31.920Z,94.20
2023-05-19T00:06:35.161Z,93.70
2023-05-19T00:07:40.234Z,93.60
2023-05-19T00:08:42.443Z,93.90
2023-05-19T00:09:45.952Z,94.30
2023-05-19T00:10:48.534Z,94.60
2023-05-19T00:11:52.226Z,94.70
2023-05-19T00:12:54.824Z,94.90
2023-05-19T00:13:59.516Z,95.10
2023-05-19T00:15:01.892Z,94.90
2023-05-19T00:16:06.062Z,95.40
2023-05-19T00:17:09.221Z,95.90
2023-05-19T00:18:14.016Z,96.10
2023-05-19T00:19:16.979Z,96.20
2023-05-19T00:20:20.190Z,96.40
2023-05-19T00:21:22.544Z,96.60
2023-05-19T00:22:25.922Z,96.90
2023-05-19T00:23:29.511Z,96.90
2023-05-19T00:24:32.545Z,97.10
2023-05-19T00:25:34.612Z,97.40
2023-05-19T00:26:37.924Z,97.40
2023-05-19T00:27:40.874Z,97.50
2023-05-19T00:28:44.132Z,97.30
2023-05-19T00:29:46.345Z,97.70
2023-05-19T00:30:49.408Z,98.00
2023-05-19T00:31:51.683Z,98.20
2023-05-19T00:32:54.774Z,98.50
2023-05-19T00:33:56.886Z,98.50
2023-05-19T00:35:00.791Z,98.80
2023-05-19T00:36:04.205Z,98.90
2023-05-19T00:37:07.266Z,98.50
2023-05-19T00:38:09.634Z,98.20
2023-05-19T00:39:14.133Z,98.60
2023-05-19T00:40:17.400Z,98.60
2023-05-19T00:41:21.055Z,98.70
2023-05-19T00:42:23.176Z,98.70
2023-05-19T00:43:26.300Z,98.90
2023-05-19T00:44:28.415Z,98.70
2023-05-19T00:45:31.582Z,98.40
2023-05-19T00:46:34.012Z,98.30
2023-05-19T00:47:37.145Z,98.60
2023-05-19T00:48:39.320Z,98.80
2023-05-19T00:49:42.357Z,99.20
2023-05-19T00:50:45.375Z,99.10
2023-05-19T00:51:49.691Z,99.20
2023-05-19T00:52:51.848Z,99.30
2023-05-19T00:53:55.128Z,99.50
2023-05-19T00:55:00.196Z,99.70
2023-05-19T00:56:03.150Z,99.90
2023-05-19T00:57:06.707Z,99.90
2023-05-19T00:58:10.864Z,99.90
2023-05-19T00:59:14.052Z,99.90
2023-05-19T01:00:16.582Z,99.90
2023-05-19T01:01:21.522Z,99.90
2023-05-19T01:02:25.070Z,99.90
2023-05-19T01:03:31.047Z,99.90
2023-05-19T01:04:34.901Z,99.90
2023-05-19T01:05:41.718Z,99.90
2023-05-19T01:06:43.857Z,99.90
2023-05-19T01:07:47.128Z,99.90
2023-05-19T01:08:50.929Z,99.90
2023-05-19T01:09:54.048Z,99.90
2023-05-19T01:10:57.471Z,99.90
2023-05-19T01:12:00.976Z,99.90
2023-05-19T01:13:04.646Z,99.90
2023-05-19T01:14:07.796Z,99.90
2023-05-19T01:15:11.041Z,99.90
2023-05-19T01:16:23.046Z,99.90
2023-05-19T01:17:34.397Z,99.90
2023-05-19T01:18:47.743Z,99.90
2023-05-19T01:19:57.557Z,99.90
2023-05-19T01:21:36.496Z,99.90
2023-05-19T01:23:21.609Z,99.90
2023-05-19T01:24:39.121Z,99.90
2023-05-19T01:26:10.490Z,99.90
2023-05-19T01:27:47.876Z,99.90
2023-05-19T01:29:08.571Z,99.90
2023-05-19T01:30:25.659Z,99.90
2023-05-19T01:31:29.332Z,99.90
2023-05-19T01:32:33.628Z,99.90
2023-05-19T01:33:40.682Z,99.90
2023-05-19T01:34:45.160Z,99.90
2023-05-19T01:35:49.814Z,99.90
2023-05-19T01:36:55.113Z,99.90
2023-05-19T01:38:00.319Z,99.90
2023-05-19T01:39:02.752Z,99.90
2023-05-19T01:40:09.064Z,99.90
2023-05-19T01:41:12.412Z,99.90
2023-05-19T01:42:16.687Z,99.90
2023-05-19T01:43:21.139Z,99.90
2023-05-19T01:44:25.135Z,99.90
2023-05-19T01:45:31.068Z,99.90
2023-05-19T01:46:34.677Z,99.90
2023-05-19T01:47:39.887Z,99.90
2023-05-19T01:48:44.013Z,99.90
2023-05-19T01:49:46.135Z,99.90
2023-05-19T01:50:49.309Z,99.90
2023-05-19T01:51:53.205Z,99.90
2023-05-19T01:52:58.685Z,99.90
2023-05-19T01:54:01.926Z,99.90
2023-05-19T01:55:04.781Z,99.90
2023-05-19T01:56:08.879Z,99.90
2023-05-19T01:57:20.528Z,99.90
2023-05-19T01:58:32.203Z,99.90
2023-05-19T01:59:46.334Z,99.90
2023-05-19T02:01:03.448Z,99.90
2023-05-19T02:02:16.213Z,99.90
2023-05-19T02:03:44.948Z,99.90
2023-05-19T02:04:52.956Z,99.90
2023-05-19T02:06:04.253Z,99.90
2023-05-19T02:07:15.024Z,99.90
2023-05-19T02:08:25.536Z,99.90
2023-05-19T02:09:37.773Z,99.90
2023-05-19T02:10:45.581Z,99.90
2023-05-19T02:11:53.493Z,99.90
2023-05-19T02:12:59.950Z,99.90
2023-05-19T02:14:06.345Z,99.90
2023-05-19T02:15:15.255Z,99.90
2023-05-19T02:16:21.953Z,99.90
2023-05-19T02:17:29.114Z,99.90
2023-05-19T02:18:33.213Z,99.90
2023-05-19T02:19:39.272Z,99.90
2023-05-19T02:20:42.467Z,99.90
2023-05-19T02:21:45.828Z,99.90
2023-05-19T02:22:48.038Z,99.90
2023-05-19T02:23:51.963Z,99.90
2023-05-19T02:24:56.536Z,99.90
2023-05-19T02:25:59.607Z,99.90
2023-05-19T02:27:01.797Z,99.90
2023-05-19T02:28:05.033Z,99.90
2023-05-19T02:29:07.179Z,99.90
2023-05-19T02:30:11.526Z,99.90
2023-05-19T02:31:13.626Z,99.90
2023-05-19T02:32:18.799Z,99.90
2023-05-19T02:33:24.642Z,99.90
2023-05-19T02:34:27.915Z,99.90
2023-05-19T02:35:29.957Z,99.90
2023-05-19T02:36:36.610Z,99.90
2023-05-19T02:37:38.778Z,99.90
2023-05-19T02:38:41.833Z,99.90
2023-05-19T02:39:44.822Z,99.90
2023-05-19T02:40:48.805Z,99.90
2023-05-19T02:41:50.907Z,99.90
2023-05-19T02:42:53.973Z,99.90
2023-05-19T02:43:56.158Z,99.90
2023-05-19T02:45:01.096Z,99.90
2023-05-19T02:46:03.393Z,99.90
2023-05-19T02:47:06.574Z,99.90
2023-05-19T02:48:10.027Z,99.90
2023-05-19T02:49:13.069Z,99.90
2023-05-19T02:50:15.321Z,99.90
2023-05-19T02:51:18.546Z,99.90
2023-05-19T02:52:20.644Z,99.90
2023-05-19T02:53:23.721Z,99.90
2023-05-19T02:54:25.848Z,99.90
2023-05-19T02:55:29.713Z,99.90
2023-05-19T02:56:31.925Z,99.90
2023-05-19T02:57:36.207Z,99.90
2023-05-19T02:58:38.421Z,99.90
2023-05-19T02:59:42.803Z,99.90
2023-05-19T03:00:45.233Z,99.90
2023-05-19T03:01:48.465Z,99.90
2023-05-19T03:02:52.924Z,99.90
2023-05-19T03:03:57.442Z,99.90
2023-05-19T03:05:01.880Z,99.90
2023-05-19T03:06:08.725Z,99.90
2023-05-19T03:07:11.005Z,99.90
2023-05-19T03:08:14.212Z,99.90
2023-05-19T03:09:16.476Z,99.90
2023-05-19T03:10:19.760Z,99.90
2023-05-19T03:11:23.249Z,99.90
2023-05-19T03:12:26.506Z,99.90
2023-05-19T03:13:29.161Z,99.90
2023-05-19T03:14:33.898Z,99.90
2023-05-19T03:15:36.584Z,99.90
2023-05-19T03:16:41.158Z,99.90
2023-05-19T03:17:43.608Z,99.90
2023-05-19T03:18:47.365Z,99.90
2023-05-19T03:19:51.294Z,99.90
2023-05-19T03:20:54.911Z,99.90
2023-05-19T03:21:57.369Z,99.90
2023-05-19T03:23:01.302Z,99.90
2023-05-19T03:24:03.886Z,99.90
2023-05-19T03:25:07.510Z,99.90
2023-05-19T03:26:10.270Z,99.90
2023-05-19T03:27:14.013Z,99.90
2023-05-19T03:28:17.187Z,99.90
2023-05-19T03:29:20.309Z,99.90
2023-05-19T03:30:22.528Z,99.90
2023-05-19T03:31:36.522Z,99.90
2023-05-19T03:32:40.414Z,99.90
2023-05-19T03:33:43.605Z,99.90
2023-05-19T03:34:45.702Z,99.90
2023-05-19T03:35:50.573Z,99.90
2023-05-19T03:36:53.760Z,99.90
2023-05-19T03:37:57.044Z,99.90
2023-05-19T03:39:00.168Z,99.90
2023-05-19T03:40:02.564Z,99.90
2023-05-19T03:41:06.956Z,99.90
2023-05-19T03:42:09.592Z,99.90
2023-05-19T03:43:13.093Z,99.90
2023-05-19T03:44:21.494Z,99.90
2023-05-19T03:45:24.591Z,99.90
2023-05-19T03:46:28.458Z,99.90
2023-05-19T03:47:44.651Z,99.90
2023-05-19T03:49:06.788Z,99.90
2023-05-19T03:50:34.148Z,99.90
2023-05-19T03:51:48.487Z,99.90
2023-05-19T03:53:02.034Z,99.90
2023-05-19T03:54:07.633Z,99.90
2023-05-19T03:55:11.331Z,99.90
2023-05-19T03:56:13.903Z,99.90
2023-05-19T03:57:17.427Z,99.90
2023-05-19T03:58:19.582Z,99.90
2023-05-19T03:59:23.603Z,99.90
2023-05-19T04:00:25.688Z,99.90
2023-05-19T04:01:28.753Z,99.90
2023-05-19T04:02:31.563Z,99.90
2023-05-19T04:03:34.761Z,99.90
2023-05-19T04:04:37.978Z,99.90
2023-05-19T04:05:41.163Z,99.90
2023-05-19T04:06:43.222Z,99.90
2023-05-19T04:07:47.755Z,99.90
2023-05-19T04:08:50.287Z,99.90
2023-05-19T04:09:53.319Z,99.90
2023-05-19T04:10:55.728Z,99.90
2023-05-19T04:11:58.829Z,99.90
2023-05-19T04:13:01.266Z,99.90
2023-05-19T04:14:04.375Z,99.90
2023-05-19T04:15:07.898Z,99.90
2023-05-19T04:16:11.242Z,99.90
2023-05-19T04:17:13.373Z,99.90
2023-05-19T04:18:16.437Z,99.90
2023-05-19T04:19:18.649Z,99.90
2023-05-19T04:20:21.974Z,99.90
2023-05-19T04:21:24.160Z,99.90
2023-05-19T04:22:27.435Z,99.90
2023-05-19T04:23:31.677Z,99.90
2023-05-19T04:24:34.805Z,99.90
2023-05-19T04:25:38.159Z,99.90
2023-05-19T04:26:42.554Z,99.90
2023-05-19T04:27:44.686Z,99.90
2023-05-19T04:28:48.346Z,99.90
2023-05-19T04:29:50.418Z,99.90
2023-05-19T04:30:53.561Z,99.90
2023-05-19T04:31:55.951Z,99.90
2023-05-19T04:33:01.276Z,99.90
2023-05-19T04:34:03.562Z,99.90
2023-05-19T04:35:07.097Z,99.90
2023-05-19T04:36:10.565Z,99.90
2023-05-19T04:37:16.506Z,99.90
2023-05-19T04:38:20.180Z,99.90
2023-05-19T04:39:25.956Z,99.90
2023-05-19T04:40:31.144Z,99.90
2023-05-19T04:41:34.797Z,99.90
2023-05-19T04:42:41.407Z,99.90
2023-05-19T04:43:45.787Z,99.90
2023-05-19T04:44:49.385Z,99.90
2023-05-19T04:45:52.816Z,99.90
2023-05-19T04:46:58.264Z,99.90
2023-05-19T04:48:02.037Z,99.90
2023-05-19T04:49:04.227Z,99.90
2023-05-19T04:50:10.259Z,99.90
2023-05-19T04:51:14.186Z,99.90
2023-05-19T04:52:21.749Z,99.90
2023-05-19T04:53:25.651Z,99.90
2023-05-19T04:54:30.192Z,99.90
2023-05-19T04:55:32.906Z,99.90
2023-05-19T04:56:36.064Z,99.90
2023-05-19T04:57:38.814Z,99.90
2023-05-19T04:58:44.692Z,99.90
2023-05-19T04:59:46.984Z,99.90
2023-05-19T05:00:51.610Z,99.90
2023-05-19T05:01:54.111Z,99.90
2023-05-19T05:02:58.123Z,99.90
2023-05-19T05:04:02.923Z,99.90
2023-05-19T05:05:08.489Z,99.90
2023-05-19T05:06:11.692Z,99.90
2023-05-19T05:07:14.846Z,99.90
2023-05-19T05:08:22.796Z,99.90
2023-05-19T05:09:26.281Z,99.90
2023-05-19T05:10:30.398Z,99.90
2023-05-19T05:11:34.651Z,99.90
2023-05-19T05:12:37.342Z,99.90
2023-05-19T05:13:41.594Z,99.90
2023-05-19T05:14:44.634Z,99.90
2023-05-19T05:15:48.478Z,99.90
2023-05-19T05:16:51.916Z,99.90
2023-05-19T05:18:00.332Z,99.90
2023-05-19T05:19:03.143Z,99.90
2023-05-19T05:20:08.248Z,99.90
2023-05-19T05:21:11.318Z,99.90
2023-05-19T05:22:15.127Z,99.90
2023-05-19T05:23:17.891Z,99.90
2023-05-19T05:24:23.444Z,98.40
2023-05-19T05:25:32.368Z,97.70
2023-05-19T05:26:36.737Z,97.00
2023-05-19T05:27:38.842Z,96.50
2023-05-19T05:28:43.980Z,96.50
2023-05-19T05:29:46.173Z,96.80
2023-05-19T05:30:50.284Z,97.30
2023-05-19T05:31:53.469Z,97.60
2023-05-19T05:32:56.925Z,96.80
2023-05-19T05:34:06.758Z,96.60
2023-05-19T05:35:10.693Z,97.00
2023-05-19T05:36:14.117Z,97.30
2023-05-19T05:37:17.318Z,97.10
2023-05-19T05:38:19.423Z,96.30
2023-05-19T05:39:22.682Z,96.00
2023-05-19T05:40:25.151Z,96.50
2023-05-19T05:41:35.066Z,96.60
2023-05-19T05:42:41.074Z,96.20
2023-05-19T05:43:44.236Z,96.00
2023-05-19T05:44:46.342Z,95.90
2023-05-19T05:45:50.144Z,94.80
2023-05-19T05:46:53.012Z,94.30
2023-05-19T05:47:57.033Z,94.10
2023-05-19T05:48:59.736Z,94.20
2023-05-19T05:50:03.663Z,94.30
2023-05-19T05:51:07.215Z,94.60
2023-05-19T05:52:13.291Z,94.40
2023-05-19T05:53:21.434Z,94.40
2023-05-19T05:54:28.277Z,94.20
2023-05-19T05:55:31.789Z,94.10
2023-05-19T05:56:39.185Z,94.00
2023-05-19T05:57:43.670Z,94.10
2023-05-19T05:58:46.712Z,93.10
2023-05-19T05:59:48.787Z,92.60
2023-05-19T06:00:53.601Z,93.00
2023-05-19T06:01:56.047Z,92.90
2023-05-19T06:02:59.855Z,92.90
2023-05-19T06:04:02.118Z,92.60
2023-05-19T06:05:06.849Z,93.20
2023-05-19T06:06:09.353Z,93.80
2023-05-19T06:07:12.400Z,93.80
2023-05-19T06:08:14.741Z,93.90
2023-05-19T06:09:17.869Z,94.20
2023-05-19T06:10:20.510Z,94.30
2023-05-19T06:11:25.039Z,94.00
2023-05-19T06:12:29.186Z,93.40
2023-05-19T06:13:32.276Z,93.20
2023-05-19T06:14:34.407Z,92.60
2023-05-19T06:15:49.789Z,91.90
2023-05-19T06:16:56.455Z,91.20
2023-05-19T06:17:59.538Z,90.70
2023-05-19T06:19:02.740Z,90.20
2023-05-19T06:20:06.436Z,87.90
2023-05-19T06:21:10.174Z,87.00
2023-05-19T06:22:12.732Z,86.20
2023-05-19T06:23:15.865Z,85.20
2023-05-19T06:24:17.997Z,84.90
2023-05-19T06:25:21.523Z,84.20
2023-05-19T06:26:23.783Z,85.10
2023-05-19T06:27:26.967Z,85.10
2023-05-19T06:28:31.639Z,85.90
2023-05-19T06:29:33.772Z,85.10
2023-05-19T06:30:39.820Z,83.00
2023-05-19T06:31:53.822Z,81.20
2023-05-19T06:32:57.773Z,80.30
2023-05-19T06:34:01.196Z,79.50
2023-05-19T06:35:05.175Z,78.30
2023-05-19T06:36:10.003Z,79.40
2023-05-19T06:37:19.540Z,79.30
2023-05-19T06:38:21.708Z,78.60
2023-05-19T06:39:24.872Z,78.50
2023-05-19T06:40:27.022Z,78.10
2023-05-19T06:41:30.992Z,78.60
2023-05-19T06:42:33.159Z,80.30
2023-05-19T06:43:51.922Z,79.60
2023-05-19T06:44:57.316Z,78.50
2023-05-19T06:46:00.664Z,77.90
2023-05-19T06:47:04.722Z,76.30
2023-05-19T06:48:07.915Z,74.50
2023-05-19T06:49:10.832Z,74.70
2023-05-19T06:50:17.742Z,72.70
2023-05-19T06:51:22.382Z,72.30
2023-05-19T06:52:29.982Z,71.00
2023-05-19T06:53:33.622Z,70.40
2023-05-19T06:54:38.975Z,68.70
2023-05-19T06:55:54.296Z,67.20
2023-05-19T06:57:02.713Z,66.60
2023-05-19T06:58:05.003Z,65.80
2023-05-19T06:59:09.404Z,66.20
2023-05-19T07:00:16.090Z,64.10
2023-05-19T07:01:26.431Z,63.80
2023-05-19T07:02:30.387Z,63.30
2023-05-19T07:03:33.852Z,61.60
2023-05-19T07:04:36.704Z,59.80
2023-05-19T07:05:39.879Z,58.90
2023-05-19T07:06:42.016Z,57.80
2023-05-19T07:07:45.695Z,57.00
2023-05-19T07:08:51.481Z,56.30
2023-05-19T07:09:54.498Z,55.90
2023-05-19T07:10:57.834Z,56.00
2023-05-19T07:11:59.931Z,54.10
2023-05-19T07:13:03.359Z,52.70
2023-05-19T07:14:09.462Z,52.70
2023-05-19T07:15:12.934Z,53.00
2023-05-19T07:16:16.110Z,53.40
2023-05-19T07:17:20.651Z,53.90
2023-05-19T07:18:24.409Z,53.40
2023-05-19T07:19:27.889Z,53.60
2023-05-19T07:20:31.388Z,54.00
2023-05-19T07:21:33.622Z,54.30
2023-05-19T07:22:36.901Z,54.20
2023-05-19T07:23:39.328Z,53.80
2023-05-19T07:24:42.360Z,54.30
2023-05-19T07:25:44.555Z,54.40
2023-05-19T07:26:47.925Z,53.60
2023-05-19T07:27:51.015Z,52.30
2023-05-19T07:28:53.424Z,51.50
2023-05-19T07:29:57.792Z,50.60
2023-05-19T07:30:59.956Z,49.20
2023-05-19T07:32:03.058Z,48.80
2023-05-19T07:33:05.417Z,49.20
2023-05-19T07:34:08.783Z,49.20
2023-05-19T07:35:11.826Z,49.30
2023-05-19T07:36:13.893Z,49.50
2023-05-19T07:37:17.031Z,49.30
2023-05-19T07:38:20.339Z,49.70
2023-05-19T07:39:25.271Z,49.10
2023-05-19T07:40:28.603Z,48.40
2023-05-19T07:41:30.773Z,47.90
2023-05-19T07:42:33.780Z,47.70
2023-05-19T07:43:35.967Z,47.80
2023-05-19T07:44:39.180Z,47.80
2023-05-19T07:45:43.684Z,47.70
2023-05-19T07:46:46.010Z,47.20
2023-05-19T07:47:49.209Z,46.80
2023-05-19T07:48:51.391Z,46.70
2023-05-19T07:49:54.432Z,46.90
2023-05-19T07:50:56.910Z,47.40
2023-05-19T07:52:00.053Z,47.70
2023-05-19T07:53:02.147Z,46.90
2023-05-19T07:54:05.263Z,44.90
2023-05-19T07:55:07.521Z,43.20
2023-05-19T07:56:10.844Z,43.50
2023-05-19T07:57:14.507Z,43.80
2023-05-19T07:58:16.649Z,42.80
2023-05-19T07:59:21.052Z,42.00
2023-05-19T08:00:24.341Z,40.30
2023-05-19T08:01:28.821Z,39.20
2023-05-19T08:02:30.981Z,38.20
2023-05-19T08:03:34.792Z,39.90
2023-05-19T08:04:38.173Z,40.90
2023-05-19T08:05:40.614Z,41.50
2023-05-19T08:06:44.562Z,41.40
2023-05-19T08:07:47.087Z,40.70
2023-05-19T08:08:50.142Z,41.00
2023-05-19T08:09:53.146Z,41.90
2023-05-19T08:10:55.497Z,41.70
2023-05-19T08:11:58.842Z,42.00
2023-05-19T08:13:00.968Z,41.10
2023-05-19T08:14:04.238Z,41.60
2023-05-19T08:15:07.970Z,41.90
2023-05-19T08:16:11.654Z,41.20
2023-05-19T08:17:15.109Z,40.50
2023-05-19T08:18:18.295Z,40.50
2023-05-19T08:19:20.527Z,40.40
2023-05-19T08:20:24.385Z,40.10
2023-05-19T08:21:26.512Z,40.70
2023-05-19T08:22:29.552Z,40.90
2023-05-19T08:23:31.820Z,40.50
2023-05-19T08:24:34.847Z,41.10
2023-05-19T08:25:36.964Z,41.20
2023-05-19T08:26:40.264Z,40.80
2023-05-19T08:27:42.348Z,41.60
2023-05-19T08:28:45.427Z,41.70
2023-05-19T08:29:47.538Z,41.80
2023-05-19T08:30:52.453Z,42.00
2023-05-19T08:31:54.552Z,43.30
2023-05-19T08:32:59.156Z,44.40
2023-05-19T08:34:01.357Z,46.40
2023-05-19T08:35:04.883Z,47.50
2023-05-19T08:36:08.370Z,48.00
2023-05-19T08:37:10.792Z,48.10
2023-05-19T08:38:13.858Z,48.20
2023-05-19T08:39:18.241Z,49.20
2023-05-19T08:40:22.060Z,50.00
2023-05-19T08:41:24.304Z,50.30
2023-05-19T08:42:27.355Z,50.20
2023-05-19T08:43:29.544Z,50.00
2023-05-19T08:44:32.682Z,50.00
2023-05-19T08:45:35.053Z,50.10
2023-05-19T08:46:38.375Z,50.40
2023-05-19T08:47:41.532Z,50.20
2023-05-19T08:48:48.940Z,50.90
2023-05-19T08:49:58.338Z,52.00
2023-05-19T08:51:09.942Z,52.40
2023-05-19T08:52:23.294Z,52.70
2023-05-19T08:53:34.280Z,53.00
2023-05-19T08:54:54.411Z,53.40
2023-05-19T08:56:04.108Z,51.80
2023-05-19T08:57:06.839Z,50.30
2023-05-19T08:58:10.176Z,50.70
2023-05-19T08:59:14.066Z,50.70
2023-05-19T09:00:18.445Z,50.50
2023-05-19T09:01:23.278Z,49.90
2023-05-19T09:02:25.995Z,50.10
2023-05-19T09:03:30.308Z,50.20
2023-05-19T09:04:35.826Z,49.80
2023-05-19T09:05:39.722Z,48.50
2023-05-19T09:06:45.022Z,48.80
2023-05-19T09:07:48.368Z,48.70
2023-05-19T09:08:51.476Z,48.30
2023-05-19T09:09:53.767Z,47.80
2023-05-19T09:10:56.848Z,48.00
2023-05-19T09:12:00.071Z,48.20
2023-05-19T09:13:03.181Z,48.10
2023-05-19T09:14:06.462Z,48.10
2023-05-19T09:15:09.729Z,47.90
2023-05-19T09:16:13.302Z,47.70
2023-05-19T09:17:15.821Z,47.60
2023-05-19T09:18:19.110Z,47.90
2023-05-19T09:19:22.611Z,48.00
2023-05-19T09:20:26.423Z,47.90
2023-05-19T09:21:31.429Z,47.20
2023-05-19T09:22:36.464Z,47.10
2023-05-19T09:23:39.775Z,47.10
2023-05-19T09:24:43.056Z,47.40
2023-05-19T09:25:49.422Z,47.80
2023-05-19T09:26:52.472Z,47.40
2023-05-19T09:27:55.298Z,46.90
2023-05-19T09:28:59.417Z,47.00
2023-05-19T09:30:10.335Z,47.40
2023-05-19T09:31:13.429Z,47.40
2023-05-19T09:32:25.230Z,47.50
2023-05-19T09:33:28.548Z,47.40
2023-05-19T09:34:31.743Z,47.40
2023-05-19T09:35:36.505Z,47.40
2023-05-19T09:36:40.973Z,47.60
2023-05-19T09:37:43.735Z,47.80
2023-05-19T09:38:46.929Z,47.00
2023-05-19T09:39:51.995Z,46.60
2023-05-19T09:40:57.956Z,47.20
2023-05-19T09:42:06.257Z,47.40
2023-05-19T09:43:09.469Z,47.80
2023-05-19T09:44:21.456Z,47.90
2023-05-19T09:45:24.627Z,47.40
2023-05-19T09:46:28.364Z,47.50
2023-05-19T09:47:33.986Z,47.40
2023-05-19T09:48:37.539Z,46.90
2023-05-19T09:49:47.467Z,46.40
2023-05-19T09:50:53.093Z,45.20
2023-05-19T09:51:55.759Z,45.30
2023-05-19T09:52:59.192Z,45.50
2023-05-19T09:54:01.488Z,46.10
2023-05-19T09:55:06.257Z,46.20
2023-05-19T09:56:09.704Z,46.40
2023-05-19T09:57:12.905Z,46.00
2023-05-19T09:58:18.763Z,45.80
2023-05-19T09:59:24.425Z,45.70
2023-05-19T10:00:28.417Z,45.60
2023-05-19T10:01:33.696Z,45.50
2023-05-19T10:02:37.827Z,45.10
2023-05-19T10:03:41.596Z,45.20
2023-05-19T10:04:45.840Z,45.90
2023-05-19T10:05:49.592Z,45.70
2023-05-19T10:06:54.137Z,45.70
2023-05-19T10:07:57.360Z,45.00
2023-05-19T10:09:01.356Z,44.50
2023-05-19T10:10:04.445Z,44.70
2023-05-19T10:11:07.983Z,44.50
2023-05-19T10:12:12.194Z,44.70
2023-05-19T10:13:15.679Z,44.80
2023-05-19T10:14:19.358Z,45.00
2023-05-19T10:15:23.364Z,45.50
2023-05-19T10:16:28.815Z,45.90
2023-05-19T10:17:32.301Z,46.00
2023-05-19T10:18:38.411Z,46.60
2023-05-19T10:19:45.095Z,46.40
2023-05-19T10:20:50.156Z,46.60
2023-05-19T10:21:54.974Z,46.80
2023-05-19T10:22:58.127Z,47.10
2023-05-19T10:24:00.239Z,47.20
2023-05-19T10:25:03.391Z,47.20
2023-05-19T10:26:07.529Z,47.20
2023-05-19T10:27:14.223Z,47.40
2023-05-19T10:28:20.454Z,47.10
2023-05-19T10:29:27.501Z,46.90
2023-05-19T10:30:34.255Z,46.80
2023-05-19T10:31:40.205Z,46.90
2023-05-19T10:32:46.504Z,47.00
2023-05-19T10:34:03.871Z,47.00
2023-05-19T10:35:34.837Z,46.80
2023-05-19T10:36:45.897Z,47.10
2023-05-19T10:37:58.038Z,47.40
2023-05-19T10:39:06.941Z,47.50
2023-05-19T10:40:16.866Z,47.30
2023-05-19T10:41:29.507Z,46.90
2023-05-19T10:42:44.911Z,46.90
2023-05-19T10:43:55.948Z,47.00
2023-05-19T10:45:06.134Z,47.10
2023-05-19T10:46:09.262Z,47.20
2023-05-19T10:47:12.687Z,47.00
2023-05-19T10:48:15.927Z,46.40
2023-05-19T10:49:22.323Z,46.30
2023-05-19T10:50:25.473Z,45.90
2023-05-19T10:51:32.801Z,46.30
2023-05-19T10:52:38.706Z,46.10
2023-05-19T10:53:46.913Z,46.40
2023-05-19T10:54:49.628Z,46.20
2023-05-19T10:55:56.042Z,45.90
2023-05-19T10:56:58.326Z,46.00
2023-05-19T10:58:01.515Z,46.10
2023-05-19T10:59:03.941Z,46.40
2023-05-19T11:00:28.936Z,46.60
2023-05-19T11:01:33.571Z,47.00
2023-05-19T11:02:41.126Z,47.30
2023-05-19T11:03:48.103Z,47.30
2023-05-19T11:04:51.983Z,47.50
2023-05-19T11:06:17.130Z,47.80
2023-05-19T11:07:20.332Z,47.80
2023-05-19T11:08:33.495Z,48.70
2023-05-19T11:09:41.758Z,48.30
2023-05-19T11:10:45.957Z,48.60
2023-05-19T11:11:49.347Z,48.60
2023-05-19T11:12:53.445Z,48.70
2023-05-19T11:13:57.387Z,48.50
2023-05-19T11:15:00.736Z,48.40
2023-05-19T11:16:08.662Z,48.30
2023-05-19T11:17:15.282Z,48.10
2023-05-19T11:18:19.986Z,47.90
2023-05-19T11:19:28.135Z,47.40
2023-05-19T11:20:33.705Z,47.20
2023-05-19T11:21:43.889Z,47.00
2023-05-19T11:23:02.685Z,46.30
2023-05-19T11:24:09.474Z,46.20
2023-05-19T11:25:12.873Z,45.70
2023-05-19T11:26:16.395Z,45.50
2023-05-19T11:27:21.120Z,45.40
2023-05-19T11:28:27.830Z,44.50
2023-05-19T11:29:32.904Z,44.40
2023-05-19T11:30:37.651Z,44.20
2023-05-19T11:31:41.312Z,43.90
2023-05-19T11:32:48.270Z,43.50
2023-05-19T11:33:50.597Z,43.10
2023-05-19T11:34:54.774Z,42.50
2023-05-19T11:35:58.452Z,42.70
2023-05-19T11:37:02.874Z,42.30
2023-05-19T11:38:06.947Z,41.90
2023-05-19T11:39:11.043Z,41.80
2023-05-19T11:40:15.959Z,41.30
2023-05-19T11:41:20.779Z,41.30
2023-05-19T11:42:24.535Z,41.10
2023-05-19T11:43:27.792Z,41.30
2023-05-19T11:44:29.924Z,41.60
2023-05-19T11:45:34.310Z,41.70
2023-05-19T11:46:36.653Z,42.30
2023-05-19T11:47:56.401Z,42.40
2023-05-19T11:49:03.242Z,42.40
2023-05-19T11:50:05.776Z,42.30
2023-05-19T11:51:09.080Z,42.40
2023-05-19T11:52:11.613Z,42.90
2023-05-19T11:53:16.385Z,42.80
2023-05-19T11:54:19.643Z,43.10
2023-05-19T11:55:23.174Z,42.80
2023-05-19T11:56:26.228Z,42.90
2023-05-19T11:57:29.474Z,42.80
2023-05-19T11:58:32.880Z,42.60
2023-05-19T11:59:36.584Z,43.10
2023-05-19T12:00:41.265Z,43.20
2023-05-19T12:01:43.523Z,42.90
2023-05-19T12:02:46.667Z,42.90
2023-05-19T12:03:49.762Z,43.00
2023-05-19T12:04:53.526Z,43.70
2023-05-19T12:05:57.081Z,42.50
2023-05-19T12:07:00.822Z,43.40
2023-05-19T12:08:03.150Z,43.80
2023-05-19T12:09:06.653Z,43.80
2023-05-19T12:10:10.055Z,43.80
2023-05-19T12:11:16.547Z,44.00
2023-05-19T12:12:20.411Z,43.90
2023-05-19T12:13:23.643Z,44.30
2023-05-19T12:14:26.393Z,44.00
2023-05-19T12:15:29.474Z,44.30
2023-05-19T12:16:36.030Z,44.50
2023-05-19T12:17:38.326Z,44.50
2023-05-19T12:18:41.992Z,44.70
2023-05-19T12:19:45.136Z,44.60
2023-05-19T12:20:48.664Z,44.40
2023-05-19T12:21:51.600Z,44.10
2023-05-19T12:22:56.714Z,44.10
2023-05-19T12:24:00.474Z,44.50
2023-05-19T12:25:05.016Z,44.60
2023-05-19T12:26:08.505Z,44.60
2023-05-19T12:27:17.036Z,44.80
2023-05-19T12:28:20.874Z,44.70
2023-05-19T12:29:27.940Z,44.60
2023-05-19T12:30:33.144Z,44.90
2023-05-19T12:31:37.827Z,44.70
2023-05-19T12:32:40.185Z,44.60
2023-05-19T12:33:43.376Z,44.50
2023-05-19T12:34:45.476Z,44.50
2023-05-19T12:35:50.003Z,44.40
2023-05-19T12:36:52.125Z,44.40
2023-05-19T12:37:55.677Z,44.20
2023-05-19T12:38:57.904Z,43.80
2023-05-19T12:40:02.010Z,43.40
2023-05-19T12:41:05.424Z,43.90
2023-05-19T12:42:10.212Z,43.60
2023-05-19T12:43:22.110Z,43.90
2023-05-19T12:44:24.890Z,44.20
2023-05-19T12:45:28.924Z,43.90
2023-05-19T12:46:33.113Z,44.40
2023-05-19T12:47:37.100Z,44.30
2023-05-19T12:48:41.594Z,44.40
2023-05-19T12:49:57.832Z,44.30
2023-05-19T12:51:00.131Z,44.60
2023-05-19T12:52:07.220Z,44.60
2023-05-19T12:53:14.580Z,44.90
2023-05-19T12:54:19.430Z,44.40
2023-05-19T12:55:23.189Z,44.20
2023-05-19T12:56:27.836Z,44.30
2023-05-19T12:57:31.496Z,44.50
2023-05-19T12:58:35.981Z,44.60
2023-05-19T12:59:38.986Z,44.50
2023-05-19T13:00:43.569Z,44.40
2023-05-19T13:01:46.941Z,44.10
2023-05-19T13:02:56.325Z,44.20
2023-05-19T13:03:59.854Z,44.40
2023-05-19T13:05:02.211Z,43.90
2023-05-19T13:06:06.413Z,44.10
2023-05-19T13:07:08.535Z,44.00
2023-05-19T13:08:13.815Z,44.10
2023-05-19T13:09:17.764Z,44.00
2023-05-19T13:10:20.261Z,43.50
2023-05-19T13:11:23.320Z,43.00
2023-05-19T13:12:26.128Z,42.80
2023-05-19T13:13:29.260Z,43.00
2023-05-19T13:14:33.734Z,43.20
2023-05-19T13:15:38.959Z,43.30
2023-05-19T13:16:42.573Z,43.20
2023-05-19T13:17:46.345Z,43.00
2023-05-19T13:18:49.735Z,43.10
2023-05-19T13:19:52.355Z,43.20
2023-05-19T13:20:56.022Z,43.10
2023-05-19T13:21:59.827Z,43.30
2023-05-19T13:23:03.352Z,43.60
2023-05-19T13:24:06.061Z,43.50
2023-05-19T13:25:10.437Z,43.90
2023-05-19T13:26:13.815Z,44.20
2023-05-19T13:27:16.048Z,43.80
2023-05-19T13:28:19.164Z,43.80
2023-05-19T13:29:21.344Z,44.40
2023-05-19T13:30:25.896Z,44.70
2023-05-19T13:31:28.053Z,45.00
2023-05-19T13:32:31.268Z,45.00
2023-05-19T13:33:33.410Z,45.10
2023-05-19T13:34:36.584Z,45.30
2023-05-19T13:35:41.032Z,45.50
2023-05-19T13:36:48.034Z,46.00
2023-05-19T13:37:50.917Z,46.30
2023-05-19T13:38:54.025Z,46.80
2023-05-19T13:39:58.486Z,47.00
2023-05-19T13:41:01.723Z,47.20
2023-05-19T13:42:04.803Z,47.40
2023-05-19T13:43:08.730Z,47.50
2023-05-19T13:44:12.045Z,47.60
2023-05-19T13:45:14.167Z,47.70
2023-05-19T13:46:22.172Z,48.00
2023-05-19T13:47:29.421Z,48.30
2023-05-19T13:48:33.644Z,48.20
2023-05-19T13:49:35.834Z,48.30
2023-05-19T13:50:38.989Z,48.80
2023-05-19T13:51:43.601Z,48.70
2023-05-19T13:52:47.292Z,49.00
2023-05-19T13:53:50.397Z,48.90